Gronholt Hillerod Airport


Codes: EKGH/
Name: Gronholt Hillerod Airport
City: Gronholt
Country: Denmark
Elevation: 97 ft.

Photos at Gronholt Hillerod Airport


   Photos courtesy of SpottingLog. You can add your own sightings and photos by signing up for a free trial today.



No photos found.

Weather at Gronholt Hillerod Airport


Time (UTC)DescriptionTempratureWindCloud coverageVisibilityPressureHumidity
16-Jun-2024 09:00Light Rain17°C16 mph, S93%10000m1008hPa72%
16-Jun-2024 12:00Overcast Clouds18°C16 mph, S89%10000m1008hPa65%
16-Jun-2024 15:00Broken Clouds19°C13 mph, S56%10000m1008hPa60%
16-Jun-2024 18:00Broken Clouds17°C13 mph, SE68%10000m1008hPa69%
16-Jun-2024 21:00Light Rain14°C9 mph, SE100%10000m1009hPa88%
17-Jun-2024 00:00Light Rain12°C4 mph, S100%10000m1010hPa98%
17-Jun-2024 03:00Light Rain11°C7 mph, S99%10000m1010hPa98%
17-Jun-2024 06:00Overcast Clouds15°C7 mph, SW99%10000m1011hPa90%
17-Jun-2024 09:00Light Rain16°C7 mph, SW99%10000m1012hPa83%
17-Jun-2024 12:00Light Rain19°C7 mph, SW98%10000m1012hPa60%
17-Jun-2024 15:00Light Rain19°C9 mph, SW44%10000m1012hPa64%
17-Jun-2024 18:00Light Rain17°C7 mph, SW31%10000m1012hPa81%
17-Jun-2024 21:00Light Rain12°C7 mph, SW3%10000m1013hPa94%
18-Jun-2024 00:00Clear Sky11°C7 mph, SW2%10000m1013hPa95%
18-Jun-2024 03:00Clear Sky10°C7 mph, SW3%10000m1013hPa96%
18-Jun-2024 06:00Clear Sky14°C9 mph, SW10%10000m1014hPa84%
18-Jun-2024 09:00Scattered Clouds18°C13 mph, SW35%10000m1013hPa64%
18-Jun-2024 12:00Light Rain19°C16 mph, W36%10000m1013hPa57%
18-Jun-2024 15:00Few Clouds18°C16 mph, W15%10000m1013hPa56%
18-Jun-2024 18:00Broken Clouds16°C11 mph, W59%10000m1012hPa73%
18-Jun-2024 21:00Overcast Clouds13°C7 mph, W100%10000m1012hPa88%
19-Jun-2024 00:00Overcast Clouds11°C9 mph, W100%10000m1012hPa87%
19-Jun-2024 03:00Few Clouds10°C11 mph, W14%10000m1011hPa83%
19-Jun-2024 06:00Light Rain13°C16 mph, W21%10000m1010hPa79%
19-Jun-2024 09:00Overcast Clouds14°C20 mph, W97%10000m1011hPa67%
19-Jun-2024 12:00Broken Clouds15°C20 mph, W79%10000m1013hPa64%
19-Jun-2024 15:00Broken Clouds15°C20 mph, W83%10000m1014hPa66%
19-Jun-2024 18:00Broken Clouds13°C18 mph, W67%10000m1016hPa68%
19-Jun-2024 21:00Broken Clouds11°C18 mph, W60%10000m1018hPa64%
20-Jun-2024 00:00Scattered Clouds11°C13 mph, W37%10000m1017hPa81%
20-Jun-2024 03:00Scattered Clouds12°C16 mph, W37%10000m1017hPa88%
20-Jun-2024 06:00Broken Clouds15°C16 mph, W53%10000m1017hPa79%
20-Jun-2024 09:00Scattered Clouds18°C18 mph, W35%10000m1016hPa69%
20-Jun-2024 12:00Scattered Clouds20°C20 mph, W31%10000m1017hPa62%
20-Jun-2024 15:00Few Clouds20°C18 mph, W15%10000m1016hPa61%
20-Jun-2024 18:00Scattered Clouds18°C11 mph, W28%10000m1015hPa74%
20-Jun-2024 21:00Broken Clouds13°C9 mph, SW70%10000m1016hPa87%
21-Jun-2024 00:00Scattered Clouds11°C7 mph, SW42%10000m1015hPa91%
21-Jun-2024 03:00Broken Clouds11°C4 mph, SW81%10000m1014hPa92%
21-Jun-2024 06:00Overcast Clouds16°C4 mph, SE91%10000m1012hPa71%